map of BKG home
BKG - Airport
Location
City:  Branson, Missouri, United States
ICAO:KBBG
IATA:BKG
FAA LID:BBG

Details
Type:Airport (Part 139 Class I)
Use:Public/Civil
Latitude:3631'55"N (36.532083)
Longitude:9312'02"W (-93.200543)
Datum:WGS 1984
Elevation:1302 ft (397 m)
Variation:0.71E (WMM2015 magnetic declination)
-0.10 annual change
Runways:1
Longest:7140 × 150 ft (2176 × 45.5 m), paved

Time
Time Zone:UTC-6 (DST-5)
Local Time:

Weather
METAR:KBBG 160715Z AUTO 28004KT 10SM CLR 04/03 A3023 RMK AO2
TAF:KBBG 160528Z 1606/1706 VRB03KT P6SM SKC= TAF KJLN 160528Z 1606/1706 VRB04KT P6SM SKC

Related Locations
Nearby:
Farthest:YAUG: 10842 mi / 17448 km
Augusta [Augusta Airport], WA, AU

Find:

   beyond  
but within

Other Information
Maps:
NOTAMs:
Links:
Sources:

  
  • flag of United States
  • flag of Missouri
  

Airport Diagram

Airport diagram for BKG

Airport diagram PDF

Sectional Chart

Flight Planning
at skyvector.com

Satellite Image

Google Maps Satellite view

 

Copyright © 2004-2018 Karl L. Swartz. All rights reserved.
The Great Circle Mapper name and logo are trademarks of the Great Circle Mapper.
All other trademarks mentioned herein belong to their respective owners.
Please see credits for attibutions and further copyright information.

  Follow gcmap on Facebook Follow gcmap on Twitter Follow gcmap on Google+ GCmap on LinkedIn

hCard Microformat

Geo Microformat